sensor_id;sensor_type;location;lat;lon;timestamp;P1;durP1;ratioP1;P2;durP2;ratioP2
11582;SDS011;34299;50.820;4.548;2023-01-29T00:01:57;34.53;;;20.73;;
11582;SDS011;34299;50.820;4.548;2023-01-29T00:04:25;31.75;;;18.55;;
11582;SDS011;34299;50.820;4.548;2023-01-29T00:06:52;35.60;;;18.80;;
11582;SDS011;34299;50.820;4.548;2023-01-29T00:09:19;38.05;;;20.45;;
11582;SDS011;34299;50.820;4.548;2023-01-29T00:11:46;37.40;;;21.15;;
11582;SDS011;34299;50.820;4.548;2023-01-29T00:14:14;32.30;;;18.23;;
11582;SDS011;34299;50.820;4.548;2023-01-29T00:16:42;33.45;;;18.77;;
11582;SDS011;34299;50.820;4.548;2023-01-29T00:19:09;34.60;;;18.30;;
11582;SDS011;34299;50.820;4.548;2023-01-29T00:21:37;30.40;;;18.35;;
11582;SDS011;34299;50.820;4.548;2023-01-29T00:24:04;32.92;;;18.38;;
11582;SDS011;34299;50.820;4.548;2023-01-29T00:26:31;31.27;;;17.52;;
11582;SDS011;34299;50.820;4.548;2023-01-29T00:28:58;32.15;;;19.05;;
11582;SDS011;34299;50.820;4.548;2023-01-29T00:31:26;33.53;;;19.48;;
11582;SDS011;34299;50.820;4.548;2023-01-29T00:33:55;34.15;;;19.65;;
11582;SDS011;34299;50.820;4.548;2023-01-29T00:36:23;31.80;;;18.10;;
11582;SDS011;34299;50.820;4.548;2023-01-29T00:38:53;32.00;;;19.08;;
11582;SDS011;34299;50.820;4.548;2023-01-29T00:41:22;29.83;;;16.55;;
11582;SDS011;34299;50.820;4.548;2023-01-29T00:44:07;25.48;;;16.35;;
11582;SDS011;34299;50.820;4.548;2023-01-29T00:46:52;27.45;;;15.70;;
11582;SDS011;34299;50.820;4.548;2023-01-29T00:49:21;26.40;;;15.40;;
11582;SDS011;34299;50.820;4.548;2023-01-29T00:51:48;26.08;;;14.85;;
11582;SDS011;34299;50.820;4.548;2023-01-29T00:54:29;28.73;;;16.20;;
11582;SDS011;34299;50.820;4.548;2023-01-29T00:56:57;28.42;;;16.73;;
11582;SDS011;34299;50.820;4.548;2023-01-29T00:59:24;27.08;;;15.05;;
11582;SDS011;34299;50.820;4.548;2023-01-29T01:01:51;23.40;;;15.00;;
11582;SDS011;34299;50.820;4.548;2023-01-29T01:04:37;26.38;;;15.68;;
11582;SDS011;34299;50.820;4.548;2023-01-29T01:07:04;30.92;;;16.08;;
11582;SDS011;34299;50.820;4.548;2023-01-29T01:09:33;26.40;;;16.33;;
11582;SDS011;34299;50.820;4.548;2023-01-29T01:12:18;27.90;;;14.30;;
11582;SDS011;34299;50.820;4.548;2023-01-29T01:14:46;29.77;;;15.00;;
11582;SDS011;34299;50.820;4.548;2023-01-29T01:17:13;26.08;;;14.48;;
11582;SDS011;34299;50.820;4.548;2023-01-29T01:19:42;26.65;;;14.68;;
11582;SDS011;34299;50.820;4.548;2023-01-29T01:22:09;25.65;;;14.43;;
11582;SDS011;34299;50.820;4.548;2023-01-29T01:24:36;27.42;;;15.15;;
11582;SDS011;34299;50.820;4.548;2023-01-29T01:27:04;26.63;;;15.48;;
11582;SDS011;34299;50.820;4.548;2023-01-29T01:29:31;29.25;;;15.38;;
11582;SDS011;34299;50.820;4.548;2023-01-29T01:31:58;30.13;;;16.50;;
11582;SDS011;34299;50.820;4.548;2023-01-29T01:34:26;29.33;;;16.45;;
11582;SDS011;34299;50.820;4.548;2023-01-29T01:36:54;33.88;;;18.48;;
11582;SDS011;34299;50.820;4.548;2023-01-29T01:39:22;37.83;;;18.73;;
11582;SDS011;34299;50.820;4.548;2023-01-29T01:41:49;32.05;;;18.38;;
11582;SDS011;34299;50.820;4.548;2023-01-29T01:47:03;29.40;;;16.40;;
11582;SDS011;34299;50.820;4.548;2023-01-29T01:49:30;36.00;;;17.30;;
11582;SDS011;34299;50.820;4.548;2023-01-29T01:51:59;30.25;;;15.75;;
11582;SDS011;34299;50.820;4.548;2023-01-29T01:54:27;29.23;;;15.93;;
11582;SDS011;34299;50.820;4.548;2023-01-29T01:56:55;30.15;;;16.75;;
11582;SDS011;34299;50.820;4.548;2023-01-29T01:59:29;32.65;;;17.52;;
11582;SDS011;34299;50.820;4.548;2023-01-29T02:01:58;32.80;;;17.58;;
11582;SDS011;34299;50.820;4.548;2023-01-29T02:04:44;30.25;;;15.10;;
11582;SDS011;34299;50.820;4.548;2023-01-29T02:07:31;30.25;;;13.60;;
11582;SDS011;34299;50.820;4.548;2023-01-29T02:10:16;32.03;;;16.15;;
11582;SDS011;34299;50.820;4.548;2023-01-29T02:12:44;25.27;;;13.32;;
11582;SDS011;34299;50.820;4.548;2023-01-29T02:15:12;26.23;;;13.27;;
11582;SDS011;34299;50.820;4.548;2023-01-29T02:17:39;27.23;;;14.98;;
11582;SDS011;34299;50.820;4.548;2023-01-29T02:20:11;25.73;;;14.05;;
11582;SDS011;34299;50.820;4.548;2023-01-29T02:22:49;25.05;;;14.35;;
11582;SDS011;34299;50.820;4.548;2023-01-29T02:25:25;26.58;;;13.55;;
11582;SDS011;34299;50.820;4.548;2023-01-29T02:28:05;23.85;;;14.18;;
11582;SDS011;34299;50.820;4.548;2023-01-29T02:30:36;28.27;;;14.80;;
11582;SDS011;34299;50.820;4.548;2023-01-29T02:33:07;26.70;;;14.82;;
11582;SDS011;34299;50.820;4.548;2023-01-29T02:35:41;28.48;;;15.18;;
11582;SDS011;34299;50.820;4.548;2023-01-29T02:38:10;30.77;;;14.77;;
11582;SDS011;34299;50.820;4.548;2023-01-29T02:40:40;25.38;;;14.32;;
11582;SDS011;34299;50.820;4.548;2023-01-29T02:43:17;29.25;;;14.80;;
11582;SDS011;34299;50.820;4.548;2023-01-29T02:45:48;26.45;;;14.48;;
11582;SDS011;34299;50.820;4.548;2023-01-29T02:48:18;27.10;;;15.82;;
11582;SDS011;34299;50.820;4.548;2023-01-29T02:50:47;25.40;;;13.98;;
11582;SDS011;34299;50.820;4.548;2023-01-29T02:53:17;28.08;;;16.27;;
11582;SDS011;34299;50.820;4.548;2023-01-29T02:55:46;27.20;;;14.07;;
11582;SDS011;34299;50.820;4.548;2023-01-29T02:58:17;25.88;;;15.25;;
11582;SDS011;34299;50.820;4.548;2023-01-29T03:00:47;27.77;;;14.32;;
11582;SDS011;34299;50.820;4.548;2023-01-29T03:03:16;25.35;;;13.23;;
11582;SDS011;34299;50.820;4.548;2023-01-29T03:05:46;23.50;;;13.18;;
11582;SDS011;34299;50.820;4.548;2023-01-29T03:08:19;27.35;;;13.52;;
11582;SDS011;34299;50.820;4.548;2023-01-29T03:10:47;22.33;;;12.82;;
11582;SDS011;34299;50.820;4.548;2023-01-29T03:13:20;28.77;;;13.90;;
11582;SDS011;34299;50.820;4.548;2023-01-29T03:15:50;25.05;;;13.90;;
11582;SDS011;34299;50.820;4.548;2023-01-29T03:18:25;23.63;;;12.90;;
11582;SDS011;34299;50.820;4.548;2023-01-29T03:20:55;24.55;;;13.93;;
11582;SDS011;34299;50.820;4.548;2023-01-29T03:23:24;25.30;;;13.75;;
11582;SDS011;34299;50.820;4.548;2023-01-29T03:26:06;21.85;;;12.65;;
11582;SDS011;34299;50.820;4.548;2023-01-29T03:28:52;21.92;;;11.57;;
11582;SDS011;34299;50.820;4.548;2023-01-29T03:31:37;21.67;;;13.10;;
11582;SDS011;34299;50.820;4.548;2023-01-29T03:34:22;25.42;;;13.20;;
11582;SDS011;34299;50.820;4.548;2023-01-29T03:37:00;21.45;;;13.38;;
11582;SDS011;34299;50.820;4.548;2023-01-29T03:39:27;19.88;;;12.10;;
11582;SDS011;34299;50.820;4.548;2023-01-29T03:41:56;20.35;;;12.23;;
11582;SDS011;34299;50.820;4.548;2023-01-29T03:44:29;21.83;;;11.40;;
11582;SDS011;34299;50.820;4.548;2023-01-29T03:47:03;21.48;;;11.23;;
11582;SDS011;34299;50.820;4.548;2023-01-29T03:49:38;21.92;;;10.57;;
11582;SDS011;34299;50.820;4.548;2023-01-29T03:52:14;19.02;;;9.57;;
11582;SDS011;34299;50.820;4.548;2023-01-29T03:54:43;27.58;;;13.13;;
11582;SDS011;34299;50.820;4.548;2023-01-29T03:57:18;22.58;;;11.43;;
11582;SDS011;34299;50.820;4.548;2023-01-29T03:59:49;21.52;;;12.02;;
11582;SDS011;34299;50.820;4.548;2023-01-29T04:02:20;21.55;;;11.60;;
11582;SDS011;34299;50.820;4.548;2023-01-29T04:04:52;23.05;;;12.15;;
11582;SDS011;34299;50.820;4.548;2023-01-29T04:07:20;26.98;;;13.00;;
11582;SDS011;34299;50.820;4.548;2023-01-29T04:09:49;22.40;;;11.65;;
11582;SDS011;34299;50.820;4.548;2023-01-29T04:12:18;28.45;;;12.68;;
11582;SDS011;34299;50.820;4.548;2023-01-29T04:14:49;24.10;;;11.82;;
11582;SDS011;34299;50.820;4.548;2023-01-29T04:17:19;27.10;;;13.05;;
11582;SDS011;34299;50.820;4.548;2023-01-29T04:19:47;27.92;;;13.50;;
11582;SDS011;34299;50.820;4.548;2023-01-29T04:22:16;28.80;;;13.27;;
11582;SDS011;34299;50.820;4.548;2023-01-29T04:24:44;32.88;;;14.30;;
11582;SDS011;34299;50.820;4.548;2023-01-29T04:27:20;25.00;;;12.75;;
11582;SDS011;34299;50.820;4.548;2023-01-29T04:32:45;23.75;;;12.68;;
11582;SDS011;34299;50.820;4.548;2023-01-29T04:35:20;25.73;;;13.73;;
11582;SDS011;34299;50.820;4.548;2023-01-29T04:37:55;28.50;;;13.50;;
11582;SDS011;34299;50.820;4.548;2023-01-29T04:40:25;28.10;;;14.07;;
11582;SDS011;34299;50.820;4.548;2023-01-29T04:42:58;25.75;;;13.13;;
11582;SDS011;34299;50.820;4.548;2023-01-29T04:45:31;29.13;;;12.77;;
11582;SDS011;34299;50.820;4.548;2023-01-29T04:48:06;22.20;;;12.02;;
11582;SDS011;34299;50.820;4.548;2023-01-29T04:50:38;22.20;;;12.98;;
11582;SDS011;34299;50.820;4.548;2023-01-29T04:53:07;23.50;;;12.45;;
11582;SDS011;34299;50.820;4.548;2023-01-29T04:55:38;26.60;;;13.32;;
11582;SDS011;34299;50.820;4.548;2023-01-29T04:58:07;25.77;;;12.93;;
11582;SDS011;34299;50.820;4.548;2023-01-29T05:00:36;25.98;;;13.80;;
11582;SDS011;34299;50.820;4.548;2023-01-29T05:03:05;26.45;;;13.35;;
11582;SDS011;34299;50.820;4.548;2023-01-29T05:05:33;25.98;;;13.07;;
11582;SDS011;34299;50.820;4.548;2023-01-29T05:08:01;25.17;;;13.70;;
11582;SDS011;34299;50.820;4.548;2023-01-29T05:10:32;27.35;;;13.10;;
11582;SDS011;34299;50.820;4.548;2023-01-29T05:13:02;26.08;;;13.38;;
11582;SDS011;34299;50.820;4.548;2023-01-29T05:15:30;27.52;;;13.73;;
11582;SDS011;34299;50.820;4.548;2023-01-29T05:18:00;32.35;;;13.85;;
11582;SDS011;34299;50.820;4.548;2023-01-29T05:20:29;29.17;;;13.43;;
11582;SDS011;34299;50.820;4.548;2023-01-29T05:22:57;27.50;;;13.32;;
11582;SDS011;34299;50.820;4.548;2023-01-29T05:25:25;26.30;;;13.77;;
11582;SDS011;34299;50.820;4.548;2023-01-29T05:27:52;28.38;;;14.63;;
11582;SDS011;34299;50.820;4.548;2023-01-29T05:30:28;28.23;;;14.57;;
11582;SDS011;34299;50.820;4.548;2023-01-29T05:32:58;24.60;;;12.80;;
11582;SDS011;34299;50.820;4.548;2023-01-29T05:35:25;26.58;;;14.25;;
11582;SDS011;34299;50.820;4.548;2023-01-29T05:37:55;27.50;;;14.27;;
11582;SDS011;34299;50.820;4.548;2023-01-29T05:40:22;27.05;;;14.82;;
11582;SDS011;34299;50.820;4.548;2023-01-29T05:42:50;28.40;;;14.23;;
11582;SDS011;34299;50.820;4.548;2023-01-29T05:45:17;29.83;;;14.23;;
11582;SDS011;34299;50.820;4.548;2023-01-29T05:47:44;28.38;;;14.20;;
11582;SDS011;34299;50.820;4.548;2023-01-29T05:50:13;29.65;;;15.07;;
11582;SDS011;34299;50.820;4.548;2023-01-29T05:52:40;25.08;;;13.30;;
11582;SDS011;34299;50.820;4.548;2023-01-29T05:55:09;27.17;;;14.88;;
11582;SDS011;34299;50.820;4.548;2023-01-29T05:57:36;32.03;;;15.50;;
11582;SDS011;34299;50.820;4.548;2023-01-29T06:00:04;26.50;;;14.93;;
11582;SDS011;34299;50.820;4.548;2023-01-29T06:02:31;32.00;;;14.93;;
11582;SDS011;34299;50.820;4.548;2023-01-29T06:04:59;32.47;;;16.52;;
11582;SDS011;34299;50.820;4.548;2023-01-29T06:07:26;31.13;;;15.48;;
11582;SDS011;34299;50.820;4.548;2023-01-29T06:09:53;33.42;;;16.52;;
11582;SDS011;34299;50.820;4.548;2023-01-29T06:12:22;34.78;;;17.55;;
11582;SDS011;34299;50.820;4.548;2023-01-29T06:14:49;30.85;;;15.50;;
11582;SDS011;34299;50.820;4.548;2023-01-29T06:17:16;30.65;;;15.18;;
11582;SDS011;34299;50.820;4.548;2023-01-29T06:19:43;28.17;;;15.00;;
11582;SDS011;34299;50.820;4.548;2023-01-29T06:22:11;33.08;;;15.80;;
11582;SDS011;34299;50.820;4.548;2023-01-29T06:24:38;25.95;;;14.98;;
11582;SDS011;34299;50.820;4.548;2023-01-29T06:27:05;24.83;;;13.88;;
11582;SDS011;34299;50.820;4.548;2023-01-29T06:29:34;29.77;;;14.98;;
11582;SDS011;34299;50.820;4.548;2023-01-29T06:32:01;28.27;;;14.55;;
11582;SDS011;34299;50.820;4.548;2023-01-29T06:34:28;7.95;;;6.55;;
11582;SDS011;34299;50.820;4.548;2023-01-29T06:36:55;9.25;;;5.03;;
11582;SDS011;34299;50.820;4.548;2023-01-29T06:39:23;11.40;;;6.57;;
11582;SDS011;34299;50.820;4.548;2023-01-29T06:41:50;12.63;;;5.63;;
11582;SDS011;34299;50.820;4.548;2023-01-29T06:44:17;17.00;;;9.98;;
11582;SDS011;34299;50.820;4.548;2023-01-29T06:46:46;16.45;;;9.05;;
11582;SDS011;34299;50.820;4.548;2023-01-29T06:49:13;19.20;;;10.60;;
11582;SDS011;34299;50.820;4.548;2023-01-29T06:51:41;21.95;;;9.43;;
11582;SDS011;34299;50.820;4.548;2023-01-29T06:54:08;18.55;;;10.60;;
11582;SDS011;34299;50.820;4.548;2023-01-29T06:56:35;21.98;;;10.73;;
11582;SDS011;34299;50.820;4.548;2023-01-29T06:59:03;15.70;;;8.73;;
11582;SDS011;34299;50.820;4.548;2023-01-29T07:01:30;18.52;;;10.02;;
11582;SDS011;34299;50.820;4.548;2023-01-29T07:03:58;18.40;;;10.93;;
11582;SDS011;34299;50.820;4.548;2023-01-29T07:06:27;17.55;;;11.00;;
11582;SDS011;34299;50.820;4.548;2023-01-29T07:08:54;15.17;;;9.03;;
11582;SDS011;34299;50.820;4.548;2023-01-29T07:11:22;18.55;;;10.23;;
11582;SDS011;34299;50.820;4.548;2023-01-29T07:13:49;16.83;;;10.00;;
11582;SDS011;34299;50.820;4.548;2023-01-29T07:16:16;23.27;;;10.60;;
11582;SDS011;34299;50.820;4.548;2023-01-29T07:18:44;21.10;;;10.95;;
11582;SDS011;34299;50.820;4.548;2023-01-29T07:21:12;22.57;;;10.40;;
11582;SDS011;34299;50.820;4.548;2023-01-29T07:23:39;15.65;;;8.00;;
11582;SDS011;34299;50.820;4.548;2023-01-29T07:26:07;18.13;;;7.80;;
11582;SDS011;34299;50.820;4.548;2023-01-29T07:28:37;13.90;;;8.18;;
11582;SDS011;34299;50.820;4.548;2023-01-29T07:31:04;16.52;;;8.30;;
11582;SDS011;34299;50.820;4.548;2023-01-29T07:33:32;9.18;;;7.57;;
11582;SDS011;34299;50.820;4.548;2023-01-29T07:35:59;9.10;;;5.65;;
11582;SDS011;34299;50.820;4.548;2023-01-29T07:38:28;10.68;;;7.03;;
11582;SDS011;34299;50.820;4.548;2023-01-29T07:40:55;7.32;;;3.22;;
11582;SDS011;34299;50.820;4.548;2023-01-29T07:43:22;9.45;;;7.10;;
11582;SDS011;34299;50.820;4.548;2023-01-29T07:45:49;14.02;;;8.82;;
11582;SDS011;34299;50.820;4.548;2023-01-29T07:48:17;19.10;;;9.40;;
11582;SDS011;34299;50.820;4.548;2023-01-29T07:50:44;13.35;;;6.47;;
11582;SDS011;34299;50.820;4.548;2023-01-29T07:53:12;9.00;;;5.88;;
11582;SDS011;34299;50.820;4.548;2023-01-29T07:55:41;12.75;;;7.32;;
11582;SDS011;34299;50.820;4.548;2023-01-29T07:58:09;9.43;;;7.88;;
11582;SDS011;34299;50.820;4.548;2023-01-29T08:00:36;13.63;;;6.22;;
11582;SDS011;34299;50.820;4.548;2023-01-29T08:03:04;10.27;;;5.70;;
11582;SDS011;34299;50.820;4.548;2023-01-29T08:05:32;15.88;;;7.15;;
11582;SDS011;34299;50.820;4.548;2023-01-29T08:07:59;12.20;;;7.45;;
11582;SDS011;34299;50.820;4.548;2023-01-29T08:10:27;10.27;;;6.97;;
11582;SDS011;34299;50.820;4.548;2023-01-29T08:12:57;10.30;;;7.47;;
11582;SDS011;34299;50.820;4.548;2023-01-29T08:15:24;12.65;;;8.05;;
11582;SDS011;34299;50.820;4.548;2023-01-29T08:17:52;8.07;;;4.55;;
11582;SDS011;34299;50.820;4.548;2023-01-29T08:20:20;12.02;;;7.18;;
11582;SDS011;34299;50.820;4.548;2023-01-29T08:22:48;7.93;;;4.72;;
11582;SDS011;34299;50.820;4.548;2023-01-29T08:25:15;11.18;;;7.07;;
11582;SDS011;34299;50.820;4.548;2023-01-29T08:27:42;13.32;;;8.48;;
11582;SDS011;34299;50.820;4.548;2023-01-29T08:30:12;10.18;;;5.50;;
11582;SDS011;34299;50.820;4.548;2023-01-29T08:32:39;4.55;;;3.97;;
11582;SDS011;34299;50.820;4.548;2023-01-29T08:35:07;11.05;;;8.38;;
11582;SDS011;34299;50.820;4.548;2023-01-29T08:37:34;88.35;;;33.70;;
11582;SDS011;34299;50.820;4.548;2023-01-29T08:40:01;35.83;;;13.75;;
11582;SDS011;34299;50.820;4.548;2023-01-29T08:42:29;10.30;;;7.05;;
11582;SDS011;34299;50.820;4.548;2023-01-29T08:44:56;10.25;;;4.53;;
11582;SDS011;34299;50.820;4.548;2023-01-29T08:47:24;10.63;;;7.20;;
11582;SDS011;34299;50.820;4.548;2023-01-29T08:49:52;8.77;;;7.35;;
11582;SDS011;34299;50.820;4.548;2023-01-29T08:52:19;12.82;;;8.35;;
11582;SDS011;34299;50.820;4.548;2023-01-29T08:54:46;11.90;;;8.43;;
11582;SDS011;34299;50.820;4.548;2023-01-29T08:57:13;12.70;;;8.23;;
11582;SDS011;34299;50.820;4.548;2023-01-29T08:59:40;22.08;;;13.02;;
11582;SDS011;34299;50.820;4.548;2023-01-29T09:02:08;18.00;;;9.32;;
11582;SDS011;34299;50.820;4.548;2023-01-29T09:04:38;7.43;;;5.77;;
11582;SDS011;34299;50.820;4.548;2023-01-29T09:07:05;12.52;;;7.32;;
11582;SDS011;34299;50.820;4.548;2023-01-29T09:09:32;17.50;;;7.63;;
11582;SDS011;34299;50.820;4.548;2023-01-29T09:11:59;8.85;;;6.13;;
11582;SDS011;34299;50.820;4.548;2023-01-29T09:14:27;15.57;;;9.30;;
11582;SDS011;34299;50.820;4.548;2023-01-29T09:16:54;7.75;;;6.63;;
11582;SDS011;34299;50.820;4.548;2023-01-29T09:19:21;10.55;;;6.45;;
11582;SDS011;34299;50.820;4.548;2023-01-29T09:21:50;10.00;;;5.67;;
11582;SDS011;34299;50.820;4.548;2023-01-29T09:24:17;6.03;;;5.53;;
11582;SDS011;34299;50.820;4.548;2023-01-29T09:26:44;14.77;;;7.82;;
11582;SDS011;34299;50.820;4.548;2023-01-29T09:29:11;16.03;;;8.80;;
11582;SDS011;34299;50.820;4.548;2023-01-29T09:31:39;22.25;;;12.90;;
11582;SDS011;34299;50.820;4.548;2023-01-29T09:34:06;6.97;;;4.40;;
11582;SDS011;34299;50.820;4.548;2023-01-29T09:36:33;21.95;;;10.43;;
11582;SDS011;34299;50.820;4.548;2023-01-29T09:39:02;10.40;;;7.82;;
11582;SDS011;34299;50.820;4.548;2023-01-29T09:41:32;27.03;;;11.87;;
11582;SDS011;34299;50.820;4.548;2023-01-29T09:44:01;18.57;;;10.47;;
11582;SDS011;34299;50.820;4.548;2023-01-29T09:46:29;23.33;;;9.97;;
11582;SDS011;34299;50.820;4.548;2023-01-29T09:49:00;31.50;;;14.30;;
11582;SDS011;34299;50.820;4.548;2023-01-29T09:51:29;17.40;;;10.13;;
11582;SDS011;34299;50.820;4.548;2023-01-29T09:54:01;27.60;;;12.00;;
11582;SDS011;34299;50.820;4.548;2023-01-29T09:56:32;8.63;;;5.22;;
11582;SDS011;34299;50.820;4.548;2023-01-29T09:59:01;21.07;;;10.27;;
11582;SDS011;34299;50.820;4.548;2023-01-29T10:01:30;25.95;;;13.30;;
11582;SDS011;34299;50.820;4.548;2023-01-29T10:06:47;24.53;;;8.17;;
11582;SDS011;34299;50.820;4.548;2023-01-29T10:12:07;15.47;;;8.70;;
11582;SDS011;34299;50.820;4.548;2023-01-29T10:14:38;25.57;;;8.93;;
11582;SDS011;34299;50.820;4.548;2023-01-29T10:17:13;18.13;;;11.02;;
11582;SDS011;34299;50.820;4.548;2023-01-29T10:19:47;9.73;;;5.63;;
11582;SDS011;34299;50.820;4.548;2023-01-29T10:22:33;11.00;;;5.22;;
11582;SDS011;34299;50.820;4.548;2023-01-29T10:25:04;15.90;;;8.88;;
11582;SDS011;34299;50.820;4.548;2023-01-29T10:27:35;13.73;;;8.30;;
11582;SDS011;34299;50.820;4.548;2023-01-29T10:30:05;11.10;;;8.57;;
11582;SDS011;34299;50.820;4.548;2023-01-29T10:32:34;14.87;;;7.23;;
11582;SDS011;34299;50.820;4.548;2023-01-29T10:35:03;8.40;;;6.70;;
11582;SDS011;34299;50.820;4.548;2023-01-29T10:37:33;22.00;;;11.53;;
11582;SDS011;34299;50.820;4.548;2023-01-29T10:40:08;20.03;;;11.90;;
11582;SDS011;34299;50.820;4.548;2023-01-29T10:42:39;8.17;;;6.47;;
11582;SDS011;34299;50.820;4.548;2023-01-29T10:45:12;17.93;;;10.80;;
11582;SDS011;34299;50.820;4.548;2023-01-29T10:47:55;23.60;;;8.77;;
11582;SDS011;34299;50.820;4.548;2023-01-29T10:50:33;16.93;;;9.23;;
11582;SDS011;34299;50.820;4.548;2023-01-29T10:53:11;13.40;;;7.13;;
11582;SDS011;34299;50.820;4.548;2023-01-29T10:55:45;11.27;;;6.90;;
11582;SDS011;34299;50.820;4.548;2023-01-29T10:58:19;20.37;;;12.00;;
11582;SDS011;34299;50.820;4.548;2023-01-29T11:00:48;22.40;;;10.70;;
11582;SDS011;34299;50.820;4.548;2023-01-29T11:03:16;25.53;;;12.00;;
11582;SDS011;34299;50.820;4.548;2023-01-29T11:05:46;18.07;;;8.17;;
11582;SDS011;34299;50.820;4.548;2023-01-29T11:08:17;25.07;;;12.50;;
11582;SDS011;34299;50.820;4.548;2023-01-29T11:10:47;18.30;;;10.73;;
11582;SDS011;34299;50.820;4.548;2023-01-29T11:13:16;15.17;;;7.13;;
11582;SDS011;34299;50.820;4.548;2023-01-29T11:15:45;20.97;;;8.90;;
11582;SDS011;34299;50.820;4.548;2023-01-29T11:18:13;12.40;;;7.67;;
11582;SDS011;34299;50.820;4.548;2023-01-29T11:20:41;16.93;;;9.87;;
11582;SDS011;34299;50.820;4.548;2023-01-29T11:23:22;12.17;;;6.13;;
11582;SDS011;34299;50.820;4.548;2023-01-29T11:25:51;20.40;;;9.37;;
11582;SDS011;34299;50.820;4.548;2023-01-29T11:28:33;18.83;;;7.17;;
11582;SDS011;34299;50.820;4.548;2023-01-29T11:31:02;12.57;;;6.37;;
11582;SDS011;34299;50.820;4.548;2023-01-29T11:33:30;8.00;;;5.33;;
11582;SDS011;34299;50.820;4.548;2023-01-29T11:35:57;13.80;;;6.97;;
11582;SDS011;34299;50.820;4.548;2023-01-29T11:38:25;15.70;;;8.33;;
11582;SDS011;34299;50.820;4.548;2023-01-29T11:40:53;18.30;;;9.40;;
11582;SDS011;34299;50.820;4.548;2023-01-29T11:43:30;14.20;;;9.03;;
11582;SDS011;34299;50.820;4.548;2023-01-29T11:45:59;9.70;;;5.77;;
11582;SDS011;34299;50.820;4.548;2023-01-29T11:48:40;14.77;;;6.83;;
11582;SDS011;34299;50.820;4.548;2023-01-29T11:51:09;19.03;;;9.20;;
11582;SDS011;34299;50.820;4.548;2023-01-29T11:53:37;12.53;;;7.47;;
11582;SDS011;34299;50.820;4.548;2023-01-29T11:56:13;11.67;;;6.70;;
11582;SDS011;34299;50.820;4.548;2023-01-29T11:58:41;16.97;;;7.23;;
11582;SDS011;34299;50.820;4.548;2023-01-29T12:01:09;11.47;;;7.53;;
11582;SDS011;34299;50.820;4.548;2023-01-29T12:03:38;16.83;;;8.67;;
11582;SDS011;34299;50.820;4.548;2023-01-29T12:06:12;22.03;;;10.43;;
11582;SDS011;34299;50.820;4.548;2023-01-29T12:08:42;16.27;;;7.23;;
11582;SDS011;34299;50.820;4.548;2023-01-29T12:11:10;15.00;;;6.57;;
11582;SDS011;34299;50.820;4.548;2023-01-29T12:13:39;9.27;;;5.40;;
11582;SDS011;34299;50.820;4.548;2023-01-29T12:16:16;14.87;;;6.57;;
11582;SDS011;34299;50.820;4.548;2023-01-29T12:18:45;18.40;;;8.73;;
11582;SDS011;34299;50.820;4.548;2023-01-29T12:21:19;9.67;;;4.97;;
11582;SDS011;34299;50.820;4.548;2023-01-29T12:23:49;10.83;;;7.10;;
11582;SDS011;34299;50.820;4.548;2023-01-29T12:26:19;15.23;;;8.63;;
11582;SDS011;34299;50.820;4.548;2023-01-29T12:28:49;9.83;;;6.23;;
11582;SDS011;34299;50.820;4.548;2023-01-29T12:31:25;11.50;;;6.63;;
11582;SDS011;34299;50.820;4.548;2023-01-29T12:33:54;14.63;;;7.37;;
11582;SDS011;34299;50.820;4.548;2023-01-29T12:36:25;4.93;;;4.03;;
11582;SDS011;34299;50.820;4.548;2023-01-29T12:38:55;12.37;;;7.60;;
11582;SDS011;34299;50.820;4.548;2023-01-29T12:41:24;14.10;;;7.63;;
11582;SDS011;34299;50.820;4.548;2023-01-29T12:43:55;11.27;;;4.33;;
11582;SDS011;34299;50.820;4.548;2023-01-29T12:46:23;2.77;;;2.50;;
11582;SDS011;34299;50.820;4.548;2023-01-29T12:48:52;8.90;;;5.43;;
11582;SDS011;34299;50.820;4.548;2023-01-29T12:51:22;4.17;;;3.57;;
11582;SDS011;34299;50.820;4.548;2023-01-29T12:53:53;5.47;;;4.67;;
11582;SDS011;34299;50.820;4.548;2023-01-29T12:56:25;9.13;;;6.00;;
11582;SDS011;34299;50.820;4.548;2023-01-29T12:58:54;8.37;;;5.43;;
11582;SDS011;34299;50.820;4.548;2023-01-29T13:01:23;11.40;;;5.97;;
11582;SDS011;34299;50.820;4.548;2023-01-29T13:03:52;5.07;;;3.83;;
11582;SDS011;34299;50.820;4.548;2023-01-29T13:06:22;13.37;;;5.03;;
11582;SDS011;34299;50.820;4.548;2023-01-29T13:08:53;4.97;;;3.77;;
11582;SDS011;34299;50.820;4.548;2023-01-29T13:11:23;10.10;;;4.77;;
11582;SDS011;34299;50.820;4.548;2023-01-29T13:13:51;6.73;;;3.57;;
11582;SDS011;34299;50.820;4.548;2023-01-29T13:16:20;9.83;;;6.07;;
11582;SDS011;34299;50.820;4.548;2023-01-29T13:18:49;10.30;;;5.87;;
11582;SDS011;34299;50.820;4.548;2023-01-29T13:21:19;8.90;;;5.50;;
11582;SDS011;34299;50.820;4.548;2023-01-29T13:23:47;9.67;;;6.60;;
11582;SDS011;34299;50.820;4.548;2023-01-29T13:26:20;9.53;;;5.90;;
11582;SDS011;34299;50.820;4.548;2023-01-29T13:28:47;5.33;;;4.33;;
11582;SDS011;34299;50.820;4.548;2023-01-29T13:34:07;6.77;;;4.90;;
11582;SDS011;34299;50.820;4.548;2023-01-29T13:36:40;8.67;;;4.77;;
11582;SDS011;34299;50.820;4.548;2023-01-29T13:39:13;9.80;;;5.93;;
11582;SDS011;34299;50.820;4.548;2023-01-29T13:41:44;7.00;;;3.70;;
11582;SDS011;34299;50.820;4.548;2023-01-29T13:44:17;8.43;;;6.50;;
11582;SDS011;34299;50.820;4.548;2023-01-29T13:46:50;10.20;;;5.73;;
11582;SDS011;34299;50.820;4.548;2023-01-29T13:49:24;10.20;;;6.37;;
11582;SDS011;34299;50.820;4.548;2023-01-29T13:51:52;12.13;;;6.77;;
11582;SDS011;34299;50.820;4.548;2023-01-29T13:54:20;10.77;;;6.33;;
11582;SDS011;34299;50.820;4.548;2023-01-29T13:56:58;6.63;;;5.07;;
11582;SDS011;34299;50.820;4.548;2023-01-29T14:07:38;10.03;;;5.23;;
11582;SDS011;34299;50.820;4.548;2023-01-29T14:10:16;8.03;;;3.60;;
11582;SDS011;34299;50.820;4.548;2023-01-29T14:12:48;7.13;;;5.10;;
11582;SDS011;34299;50.820;4.548;2023-01-29T14:20:59;4.80;;;3.37;;
11582;SDS011;34299;50.820;4.548;2023-01-29T14:23:29;4.33;;;3.37;;
11582;SDS011;34299;50.820;4.548;2023-01-29T14:25:57;8.27;;;4.93;;
11582;SDS011;34299;50.820;4.548;2023-01-29T14:28:27;9.20;;;6.03;;
11582;SDS011;34299;50.820;4.548;2023-01-29T14:30:54;10.63;;;5.87;;
11582;SDS011;34299;50.820;4.548;2023-01-29T14:33:26;9.03;;;4.27;;
11582;SDS011;34299;50.820;4.548;2023-01-29T14:35:55;8.43;;;4.23;;
11582;SDS011;34299;50.820;4.548;2023-01-29T14:38:22;9.60;;;3.70;;
11582;SDS011;34299;50.820;4.548;2023-01-29T14:41:00;8.80;;;4.93;;
11582;SDS011;34299;50.820;4.548;2023-01-29T14:43:32;5.33;;;4.17;;
11582;SDS011;34299;50.820;4.548;2023-01-29T14:48:44;8.60;;;5.50;;
11582;SDS011;34299;50.820;4.548;2023-01-29T14:51:13;11.03;;;5.50;;
11582;SDS011;34299;50.820;4.548;2023-01-29T14:53:57;8.83;;;5.90;;
11582;SDS011;34299;50.820;4.548;2023-01-29T14:56:27;6.37;;;4.70;;
11582;SDS011;34299;50.820;4.548;2023-01-29T14:59:03;8.13;;;4.90;;
11582;SDS011;34299;50.820;4.548;2023-01-29T15:01:37;7.70;;;5.13;;
11582;SDS011;34299;50.820;4.548;2023-01-29T15:04:05;12.80;;;6.80;;
11582;SDS011;34299;50.820;4.548;2023-01-29T15:06:35;4.93;;;3.67;;
11582;SDS011;34299;50.820;4.548;2023-01-29T15:09:08;5.80;;;4.10;;
11582;SDS011;34299;50.820;4.548;2023-01-29T15:11:43;4.67;;;4.27;;
11582;SDS011;34299;50.820;4.548;2023-01-29T15:14:17;8.73;;;4.90;;
11582;SDS011;34299;50.820;4.548;2023-01-29T15:19:41;4.33;;;2.63;;
11582;SDS011;34299;50.820;4.548;2023-01-29T15:22:10;6.03;;;3.70;;